• Join FlightAware (Why Join?)
  • Login
  • US Flag 
09:26AM EDT


 

Airport Tracker/Info


-or-


 

Live Flight TrackerFlight Track Log ✈ N5251Z ✈ 09-Jul-2013 ✈ KYIP - KYIP

Flight Track Log - Related Links

Times and Time Zones

All times are in EDT time to prevent confusion due to time zone crossing. See the N5251Z flight status page for this flight to view local times or setup timezone preferences in your user account.

Time Position Orientation Groundspeed Altitude Reporting Facility
EDT Latitude Longitude Course Direction KTS MPH feet Rate Location/Type
12:18PM 42.2261 -83.5472 223° Southwest 74 85 1,100  Level Cleveland Center
12:19PM 42.2175 -83.5581 223° Southwest 75 86 1,400 480 Climbing Cleveland Center
12:20PM 42.2106 -83.5828 249° West 78 90 1,900 480 Climbing Cleveland Center
12:21PM 42.2078 -83.6081 262° West 73 84 2,400 540 Climbing Cleveland Center
12:22PM 42.2156 -83.6308 295° West 79 91 3,000 240 Climbing Cleveland Center
12:23PM 42.2425 -83.6319 358° North 108 124 3,000  Level Cleveland Center
12:24PM 42.2736 -83.6364 354° North 109 125 3,100  Climbing Cleveland Center
12:25PM 42.3069 -83.6381 358° North 109 125 3,000 -60 Descending Cleveland Center
12:26PM 42.3386 -83.6311 North 114 131 3,000  Level Cleveland Center
12:27PM 42.3581 -83.5983 51° Northeast 109 125 3,000  Level Cleveland Center
12:28PM 42.3547 -83.5672 98° East 111 128 3,000 -240 Level Cleveland Center
12:29PM 42.3272 -83.5828 203° Southwest 98 113 2,600 -240 Descending Cleveland Center
12:30PM 42.2997 -83.6011 206° Southwest 100 115 2,500  Descending Cleveland Center
12:31PM 42.2867 -83.6231 231° Southwest 77 89 2,600 -60 Climbing Cleveland Center
12:32PM 42.2733 -83.6533 239° Southwest 91 105 2,400 -300 Descending Cleveland Center
12:33PM 42.2600 -83.6778 234° Southwest 85 98 2,000 -420 Descending Cleveland Center
12:34PM 42.2469 -83.7053 237° Southwest 90 104 1,600 -420 Descending Cleveland Center
12:35PM 42.2294 -83.7353 232° Southwest 86 99 1,200 60 Descending Cleveland Center
12:36PM 42.2142 -83.7597 230° Southwest 82 94 1,800 540 Climbing Cleveland Center
12:37PM 42.2072 -83.7844 249° West 83 96 2,200 420 Climbing Cleveland Center
12:38PM 42.2064 -83.8153 268° West 87 100 2,700 420 Climbing Cleveland Center
12:39PM 42.2117 -83.8436 284° West 99 114 3,100 120 Climbing Cleveland Center
12:40PM 42.2431 -83.8425 North 105 121 3,000 -60 Descending Cleveland Center
12:41PM 42.2689 -83.8131 40° Northeast 114 131 3,000  Level Cleveland Center
12:42PM 42.2886 -83.7775 53° Northeast 114 131 3,000  Level Cleveland Center
12:43PM 42.3081 -83.7503 46° Northeast 109 125 3,000  Level Cleveland Center
12:44PM 42.3278 -83.7175 51° Northeast 113 130 3,100  Climbing Cleveland Center
12:45PM 42.3494 -83.6850 48° Northeast 114 131 3,000 -60 Descending Cleveland Center
12:46PM 42.3711 -83.6550 46° Northeast 102 117 3,000  Level Cleveland Center
12:47PM 42.3886 -83.6278 49° Northeast 103 119 3,000  Level Cleveland Center